createdAt,value
2019-03-17T00:00:15.804Z,73.73
2019-03-17T00:00:56.280Z,73.54
2019-03-17T00:01:38.458Z,74.21
2019-03-17T00:02:20.157Z,73.16
2019-03-17T00:03:00.647Z,73.35
2019-03-17T00:03:41.073Z,73.83
2019-03-17T00:04:31.150Z,73.44
2019-03-17T00:05:04.148Z,73.44
2019-03-17T00:05:44.533Z,72.97
2019-03-17T00:06:26.806Z,73.44
2019-03-17T00:07:09.015Z,73.44
2019-03-17T00:07:50.308Z,73.25
2019-03-17T00:08:30.691Z,73.07
2019-03-17T00:09:11.485Z,73.25
2019-03-17T00:09:57.827Z,73.07
2019-03-17T00:10:39.883Z,73.44
2019-03-17T00:11:21.862Z,73.54
2019-03-17T00:12:02.407Z,73.44
2019-03-17T00:12:43.753Z,73.63
2019-03-17T00:13:28.052Z,73.22
2019-03-17T00:14:08.585Z,73.12
2019-03-17T00:15:04.126Z,73.5
2019-03-17T00:15:32.649Z,72.55
2019-03-17T00:16:15.143Z,72.55
2019-03-17T00:16:55.700Z,72.93
2019-03-17T00:17:36.393Z,73.22
2019-03-17T00:18:18.701Z,73.6
2019-03-17T00:19:00.180Z,73.54
2019-03-17T00:19:42.294Z,73.07
2019-03-17T00:20:25.247Z,72.78
2019-03-17T00:21:05.627Z,72.87
2019-03-17T00:21:46.108Z,72.58
2019-03-17T00:22:26.912Z,73.54
2019-03-17T00:23:07.309Z,73.35
2019-03-17T00:23:47.748Z,72.49
2019-03-17T00:24:31.857Z,73.25
2019-03-17T00:25:13.975Z,72.68
2019-03-17T00:25:55.336Z,72.2
2019-03-17T00:26:35.692Z,72.39
2019-03-17T00:27:16.147Z,72.58
2019-03-17T00:27:56.608Z,72.68
2019-03-17T00:28:38.746Z,72.01
2019-03-17T00:29:21.432Z,72.49
2019-03-17T00:30:02.756Z,72.78
2019-03-17T00:30:44.156Z,72.87
2019-03-17T00:31:25.496Z,72.49
2019-03-17T00:32:08.051Z,71.82
2019-03-17T00:32:48.393Z,72.11
2019-03-17T00:33:28.833Z,72.36
2019-03-17T00:34:11.059Z,73.07
2019-03-17T00:34:56.769Z,71.92
2019-03-17T00:35:37.109Z,71.88
2019-03-17T00:36:18.761Z,72.78
2019-03-17T00:37:05.799Z,73.07
2019-03-17T00:37:47.151Z,73.44
2019-03-17T00:38:28.415Z,73.54
2019-03-17T00:39:09.768Z,73.63
2019-03-17T00:39:51.287Z,72.78
2019-03-17T00:40:31.900Z,72.68
2019-03-17T00:41:13.277Z,72.49
2019-03-17T00:41:59.594Z,72.68
2019-03-17T00:42:46.620Z,72.11
2019-03-17T00:43:27.073Z,71.88
2019-03-17T00:44:09.060Z,72.58
2019-03-17T00:44:53.257Z,72.83
2019-03-17T00:45:34.766Z,72.49
2019-03-17T00:46:16.839Z,72.87
2019-03-17T00:47:00.096Z,72.58
2019-03-17T00:47:40.464Z,72.36
2019-03-17T00:48:22.258Z,72.3
2019-03-17T00:49:03.601Z,72.49
2019-03-17T00:49:46.484Z,72.01
2019-03-17T00:50:30.619Z,71.78
2019-03-17T00:51:12.994Z,72.45
2019-03-17T00:51:54.963Z,72.87
2019-03-17T00:52:35.449Z,73.16
2019-03-17T00:53:16.109Z,72.11
2019-03-17T00:53:56.753Z,72.01
2019-03-17T00:54:37.182Z,71.88
2019-03-17T00:55:21.973Z,71.78
2019-03-17T00:56:10.081Z,71.98
2019-03-17T00:56:50.630Z,72.2
2019-03-17T00:57:35.710Z,71.72
2019-03-17T00:58:17.956Z,71.92
2019-03-17T00:59:00.863Z,71.78
2019-03-17T00:59:41.527Z,72.17
2019-03-17T01:00:25.831Z,71.92
2019-03-17T01:01:07.312Z,72.01
2019-03-17T01:01:49.437Z,71.98
2019-03-17T01:02:31.858Z,71.69
2019-03-17T01:03:15.411Z,71.98
2019-03-17T01:03:58.064Z,72.26
2019-03-17T01:04:40.472Z,71.78
2019-03-17T01:05:22.902Z,71.59
2019-03-17T01:06:03.307Z,71.88
2019-03-17T01:06:44.170Z,71.59
2019-03-17T01:07:29.453Z,72.74
2019-03-17T01:08:10.890Z,72.17
2019-03-17T01:08:53.348Z,72.36
2019-03-17T01:09:34.823Z,71.69
2019-03-17T01:10:16.104Z,71.78
2019-03-17T01:10:58.414Z,71.69
2019-03-17T01:11:39.190Z,71.72
2019-03-17T01:12:21.565Z,71.82
2019-03-17T01:13:02.054Z,71.78
2019-03-17T01:13:46.217Z,71.98
2019-03-17T01:14:26.606Z,72.39
2019-03-17T01:15:08.750Z,71.63
2019-03-17T01:15:49.185Z,71.92
2019-03-17T01:16:30.622Z,72.2
2019-03-17T01:17:14.731Z,72.2
2019-03-17T01:17:59.438Z,72.11
2019-03-17T01:18:44.064Z,72.01
2019-03-17T01:19:26.923Z,72.3
2019-03-17T01:21:30.721Z,70.87
2019-03-17T01:22:25.545Z,71.34
2019-03-17T01:23:05.915Z,71.15
2019-03-17T01:23:46.346Z,71.25
2019-03-17T01:24:28.535Z,71.92
2019-03-17T01:25:12.731Z,71.06
2019-03-17T01:25:55.062Z,70.67
2019-03-17T01:26:39.082Z,70.58
2019-03-17T01:27:19.554Z,71.34
2019-03-17T01:28:02.004Z,70.96
2019-03-17T01:28:46.113Z,70.96
2019-03-17T01:29:28.200Z,70.87
2019-03-17T01:30:13.108Z,71.44
2019-03-17T01:30:55.453Z,71.34
2019-03-17T01:31:35.664Z,70.58
2019-03-17T01:32:19.911Z,70.87
2019-03-17T01:33:04.886Z,70.48
2019-03-17T01:33:48.178Z,70.83
2019-03-17T01:34:29.719Z,71.12
2019-03-17T01:35:11.015Z,71.41
2019-03-17T01:35:53.201Z,71.41
2019-03-17T01:36:35.600Z,71.72
2019-03-17T01:37:19.176Z,71.15
2019-03-17T01:38:02.934Z,71.25
2019-03-17T01:38:44.427Z,71.25
2019-03-17T01:39:25.178Z,70.58
2019-03-17T01:40:13.402Z,71.31
2019-03-17T01:40:54.043Z,71.63
2019-03-17T01:41:37.335Z,71.15
2019-03-17T01:42:18.552Z,70.45
2019-03-17T01:42:58.683Z,69.87
2019-03-17T01:43:40.382Z,70.07
2019-03-17T01:44:20.776Z,70.45
2019-03-17T01:45:04.049Z,71.41
2019-03-17T01:45:47.603Z,71.21
2019-03-17T01:46:29.073Z,71.98
2019-03-17T01:57:19.116Z,72.26
2019-03-17T02:00:24.358Z,71.59
2019-03-17T02:01:21.882Z,72.83
2019-03-17T02:03:24.587Z,72.17
2019-03-17T02:19:53.323Z,72.36
2019-03-17T02:20:32.979Z,72.17
2019-03-17T02:21:13.404Z,72.07
2019-03-17T02:21:55.688Z,72.55
2019-03-17T02:22:36.089Z,71.88
2019-03-17T02:23:16.642Z,72.13
2019-03-17T02:23:57.041Z,73.12
2019-03-17T02:24:39.004Z,72.83
2019-03-17T02:25:19.378Z,72.55
2019-03-17T02:26:04.335Z,72.17
2019-03-17T02:26:44.709Z,73.12
2019-03-17T02:27:26.275Z,73.03
2019-03-17T02:28:08.172Z,73.41
2019-03-17T02:28:55.098Z,72.83
2019-03-17T02:29:38.976Z,73.12
2019-03-17T02:30:21.594Z,73.12
2019-03-17T02:31:05.626Z,72.36
2019-03-17T02:31:48.555Z,72.17
2019-03-17T02:32:32.095Z,71.88
2019-03-17T02:33:12.904Z,72.64
2019-03-17T02:33:55.195Z,72.26
2019-03-17T02:34:35.496Z,72.45
2019-03-17T02:35:37.071Z,72.26
2019-03-17T02:36:02.525Z,72.83
2019-03-17T02:36:43.831Z,73.12
2019-03-17T02:37:28.481Z,73.03
2019-03-17T02:38:09.008Z,72.45
2019-03-17T02:38:49.324Z,72.26
2019-03-17T02:39:32.919Z,72.07
2019-03-17T02:40:13.442Z,71.69
2019-03-17T02:40:57.612Z,72.83
2019-03-17T02:41:41.998Z,72.17
2019-03-17T02:42:24.615Z,72.74
2019-03-17T02:43:05.943Z,72.74
2019-03-17T02:43:47.152Z,72.93
2019-03-17T02:44:27.583Z,72.93
2019-03-17T02:45:12.851Z,72.45
2019-03-17T02:45:57.181Z,72.55
2019-03-17T02:46:39.103Z,72.93
2019-03-17T02:47:19.694Z,73.32
2019-03-17T02:48:01.921Z,72.45
2019-03-17T02:48:43.197Z,73.32
2019-03-17T02:49:24.058Z,73.12
2019-03-17T02:50:06.322Z,73.5
2019-03-17T02:50:48.143Z,72.55
2019-03-17T02:51:31.318Z,72.74
2019-03-17T02:52:13.600Z,72.45
2019-03-17T02:52:55.330Z,72.64
2019-03-17T02:53:39.079Z,72.45
2019-03-17T02:54:20.255Z,72.55
2019-03-17T02:55:03.273Z,71.98
2019-03-17T02:55:47.358Z,71.88
2019-03-17T02:56:28.734Z,72.55
2019-03-17T02:57:11.643Z,72.26
2019-03-17T02:57:52.110Z,72.8
2019-03-17T02:58:33.405Z,73.12
2019-03-17T02:59:16.322Z,72.55
2019-03-17T02:59:56.788Z,72.83
2019-03-17T03:00:37.153Z,72.74
2019-03-17T03:01:19.439Z,72.55
2019-03-17T03:02:01.477Z,72.17
2019-03-17T03:02:51.970Z,71.69
2019-03-17T03:03:32.610Z,72.07
2019-03-17T03:04:15.609Z,71.41
2019-03-17T03:04:56.147Z,71.78
2019-03-17T03:05:53.393Z,71.69
2019-03-17T03:06:17.747Z,72.17
2019-03-17T03:06:58.279Z,72.45
2019-03-17T03:07:40.662Z,71.98
2019-03-17T03:08:23.025Z,72.36
2019-03-17T03:09:03.464Z,71.69
2019-03-17T03:09:45.837Z,72.36
2019-03-17T03:10:31.676Z,71.78
2019-03-17T03:11:11.144Z,71.59
2019-03-17T03:11:55.190Z,71.98
2019-03-17T03:12:37.195Z,71.69
2019-03-17T03:13:18.315Z,72.26
2019-03-17T03:13:59.626Z,73.08
2019-03-17T03:14:41.850Z,72.55
2019-03-17T03:15:25.164Z,72.99
2019-03-17T03:16:07.605Z,72.74
2019-03-17T03:16:49.988Z,72.8
2019-03-17T03:17:31.930Z,73.47
2019-03-17T03:18:13.570Z,73.28
2019-03-17T03:18:56.085Z,73.47
2019-03-17T03:19:38.030Z,73.47
2019-03-17T03:20:19.492Z,73.75
2019-03-17T03:21:00.689Z,73.47
2019-03-17T03:21:42.044Z,72.8
2019-03-17T03:22:22.574Z,73.08
2019-03-17T03:23:03.016Z,73.47
2019-03-17T03:23:45.320Z,73.75
2019-03-17T03:24:26.871Z,73.85
2019-03-17T03:25:12.661Z,73.37
2019-03-17T03:25:54.971Z,73.47
2019-03-17T03:26:37.470Z,74.13
2019-03-17T03:27:20.020Z,74.13
2019-03-17T03:28:02.144Z,73.08
2019-03-17T03:28:44.318Z,74.23
2019-03-17T03:29:28.149Z,73.56
2019-03-17T03:30:11.176Z,73.37
2019-03-17T03:30:53.283Z,73.85
2019-03-17T03:31:36.775Z,73.47
2019-03-17T03:32:17.293Z,72.99
2019-03-17T03:32:59.254Z,73.28
2019-03-17T03:33:41.852Z,73.37
2019-03-17T03:34:23.830Z,73.18
2019-03-17T03:35:05.385Z,73.28
2019-03-17T03:35:45.788Z,73.28
2019-03-17T03:36:30.015Z,73.47
2019-03-17T03:37:13.234Z,73.56
2019-03-17T03:37:56.120Z,73.28
2019-03-17T03:38:36.517Z,72.99
2019-03-17T03:39:18.222Z,73.47
2019-03-17T03:39:58.793Z,72.89
2019-03-17T03:40:39.924Z,73.28
2019-03-17T03:41:22.007Z,73.28
2019-03-17T03:42:03.228Z,73.66
2019-03-17T03:42:43.733Z,73.28
2019-03-17T03:43:32.648Z,73.47
2019-03-17T03:44:16.755Z,73.94
2019-03-17T03:44:59.032Z,73.37
2019-03-17T03:45:40.290Z,73.47
2019-03-17T03:46:20.565Z,73.28
2019-03-17T03:47:01.010Z,73.28
2019-03-17T03:47:41.483Z,73.66
2019-03-17T03:48:23.996Z,73.37
2019-03-17T03:49:04.551Z,73.56
2019-03-17T03:49:49.054Z,74.13
2019-03-17T03:50:30.362Z,73.75
2019-03-17T03:51:10.950Z,74.13
2019-03-17T03:51:52.489Z,73.66
2019-03-17T03:52:33.029Z,74.13
2019-03-17T03:53:15.068Z,73.66
2019-03-17T03:53:57.174Z,73.75
2019-03-17T03:54:37.666Z,73.85
2019-03-17T03:55:19.098Z,74.23
2019-03-17T03:56:04.567Z,73.47
2019-03-17T03:56:45.433Z,73.47
2019-03-17T03:57:28.287Z,74.04
2019-03-17T03:58:10.322Z,74.9
2019-03-17T03:58:52.085Z,74.61
2019-03-17T03:59:35.064Z,73.66
2019-03-17T04:00:25.291Z,73.47
2019-03-17T04:01:09.493Z,73.28
2019-03-17T04:01:52.798Z,73.18
2019-03-17T04:02:34.230Z,73.37
2019-03-17T04:03:15.917Z,73.47
2019-03-17T04:03:56.354Z,73.85
2019-03-17T04:04:38.353Z,73.47
2019-03-17T04:05:22.391Z,74.04
2019-03-17T04:10:33.621Z,73.56
2019-03-17T04:15:21.706Z,73.75
2019-03-17T04:16:06.246Z,74.52
2019-03-17T04:16:46.599Z,74.13
2019-03-17T04:17:32.338Z,73.85
2019-03-17T04:18:19.494Z,73.75
2019-03-17T04:19:02.389Z,73.66
2019-03-17T04:19:42.731Z,73.66
2019-03-17T04:20:27.964Z,74.32
2019-03-17T04:21:08.357Z,73.18
2019-03-17T04:21:49.645Z,73.37
2019-03-17T04:22:33.550Z,73.37
2019-03-17T04:23:16.409Z,72.61
2019-03-17T04:24:00.496Z,73.37
2019-03-17T04:24:40.875Z,73.18
2019-03-17T04:25:28.846Z,72.51
2019-03-17T04:26:11.378Z,72.23
2019-03-17T04:26:51.710Z,72.99
2019-03-17T04:27:32.576Z,73.37
2019-03-17T05:14:24.584Z,78.77
2019-03-17T05:16:51.230Z,79.49
2019-03-17T05:17:51.258Z,79.49
2019-03-17T05:32:51.162Z,79.15
2019-03-17T05:41:53.999Z,79.48
2019-03-17T05:43:59.137Z,80.58
2019-03-17T05:47:45.672Z,82.01
2019-03-17T05:53:49.511Z,84.59
2019-03-17T05:54:31.909Z,85.25
2019-03-17T05:55:12.432Z,84.78
2019-03-17T05:55:54.770Z,84.97
2019-03-17T05:56:36.737Z,85.64
2019-03-17T05:57:19.113Z,86.3
2019-03-17T05:58:01.649Z,85.25
2019-03-17T05:58:42.121Z,84.97
2019-03-17T05:59:22.771Z,85.73
2019-03-17T06:00:03.624Z,85.16
2019-03-17T06:00:48.154Z,86.59
2019-03-17T06:01:31.460Z,86.59
2019-03-17T06:02:11.599Z,86.69
2019-03-17T06:02:53.740Z,86.49
2019-03-17T06:03:34.431Z,86.69
2019-03-17T06:04:16.251Z,87.35
2019-03-17T06:05:00.391Z,88.98
2019-03-17T06:05:42.993Z,88.02
2019-03-17T06:06:23.418Z,87.45
2019-03-17T06:07:17.936Z,86.69
2019-03-17T06:14:10.169Z,88.4
2019-03-17T06:14:55.260Z,88.78
2019-03-17T06:15:40.288Z,89.83
2019-03-17T06:16:26.319Z,91.36
2019-03-17T06:17:06.751Z,91.27
2019-03-17T06:17:51.867Z,90.5
2019-03-17T06:18:36.238Z,92.03
2019-03-17T06:19:18.280Z,90.98
2019-03-17T06:19:59.568Z,90.69
2019-03-17T06:20:40.997Z,91.93
2019-03-17T06:21:22.147Z,92.46
2019-03-17T06:43:45.196Z,92.22
2019-03-17T06:44:26.685Z,92.79
2019-03-17T06:45:07.161Z,93.55
2019-03-17T06:45:50.264Z,93.84
2019-03-17T06:46:30.916Z,93.17
2019-03-17T06:47:12.577Z,92.32
2019-03-17T06:47:57.206Z,92.32
2019-03-17T06:48:39.077Z,92.12
2019-03-17T06:49:21.191Z,92.03
2019-03-17T06:50:05.390Z,90.98
2019-03-17T06:50:48.269Z,90.88
2019-03-17T06:51:28.699Z,90.98
2019-03-17T06:52:12.705Z,90.98
2019-03-17T06:52:55.101Z,91.64
2019-03-17T06:53:55.395Z,89.93
2019-03-17T06:54:28.133Z,89.83
2019-03-17T06:55:08.703Z,90.88
2019-03-17T06:55:49.065Z,90.69
2019-03-17T06:56:31.291Z,91.5
2019-03-17T06:57:13.377Z,91.36
2019-03-17T06:57:54.072Z,92.22
2019-03-17T06:58:34.671Z,90.79
2019-03-17T06:59:17.871Z,91.74
2019-03-17T06:59:57.996Z,90.88
2019-03-17T07:00:38.620Z,90.41
2019-03-17T07:01:22.594Z,90.5
2019-03-17T07:02:05.529Z,90.12
2019-03-17T07:02:45.861Z,89.74
2019-03-17T07:03:26.451Z,90.98
2019-03-17T07:04:08.379Z,90.12
2019-03-17T07:04:48.826Z,90.03
2019-03-17T07:05:29.390Z,90.84
2019-03-17T07:06:11.362Z,91.13
2019-03-17T07:06:52.122Z,90.93
2019-03-17T07:07:43.586Z,90.41
2019-03-17T07:08:18.555Z,90.45
2019-03-17T07:08:59.946Z,90.17
2019-03-17T07:09:42.395Z,91.31
2019-03-17T07:10:24.659Z,90.74
2019-03-17T07:11:05.048Z,91.13
2019-03-17T07:11:47.497Z,91.6
2019-03-17T07:12:28.242Z,91.6
2019-03-17T07:13:08.761Z,90.55
2019-03-17T07:13:49.208Z,91.98
2019-03-17T07:14:32.238Z,92.27
2019-03-17T07:15:13.815Z,91.79
2019-03-17T07:15:54.199Z,91.13
2019-03-17T07:16:35.627Z,90.64
2019-03-17T07:17:21.560Z,90.84
2019-03-17T07:22:52.697Z,92.93
2019-03-17T07:29:25.824Z,93.41
2019-03-17T07:30:07.615Z,92.93
2019-03-17T07:30:51.847Z,93.51
2019-03-17T07:31:33.582Z,93.6
2019-03-17T07:32:14.656Z,92.93
2019-03-17T07:32:56.522Z,93.79
2019-03-17T07:33:43.630Z,95.32
2019-03-17T07:34:24.137Z,93.88
2019-03-17T07:35:08.136Z,95.22
2019-03-17T07:35:50.859Z,95.61
2019-03-17T07:36:31.589Z,96.84
2019-03-17T07:37:17.554Z,98.27
2019-03-17T07:37:59.562Z,99.89
2019-03-17T07:38:41.156Z,99.32
2019-03-17T07:39:22.261Z,99.13
2019-03-17T07:40:03.593Z,99.99
2019-03-17T07:40:44.042Z,99.99
2019-03-17T07:41:24.454Z,99.55
2019-03-17T07:42:04.843Z,99.18
2019-03-17T07:42:45.184Z,99.37
2019-03-17T07:43:26.515Z,99.79
2019-03-17T07:44:08.859Z,99.99
2019-03-17T07:44:50.023Z,99.99
2019-03-17T07:45:32.134Z,99.99
2019-03-17T07:46:13.511Z,99.99
2019-03-17T07:46:53.865Z,99.99
2019-03-17T07:47:35.645Z,99.99
2019-03-17T07:48:14.698Z,99.99
2019-03-17T07:48:56.611Z,99.99
2019-03-17T07:49:42.740Z,98.13
2019-03-17T07:50:23.051Z,98.32
2019-03-17T07:51:03.834Z,98.6
2019-03-17T07:51:47.685Z,99.27
2019-03-17T07:52:28.017Z,98.51
2019-03-17T07:53:09.293Z,98.41
2019-03-17T07:53:49.664Z,96.89
2019-03-17T07:54:34.947Z,95.27
2019-03-17T07:55:12.614Z,95.46
2019-03-17T07:55:52.960Z,96.03
2019-03-17T07:56:34.254Z,94.98
2019-03-17T07:57:14.737Z,95.56
2019-03-17T07:57:55.233Z,95.7
2019-03-17T07:58:35.713Z,96.55
2019-03-17T07:59:17.082Z,96.65
2019-03-17T07:59:57.498Z,95.32
2019-03-17T08:00:39.661Z,96.17
2019-03-17T08:01:22.078Z,96.84
2019-03-17T08:02:03.301Z,96.98
2019-03-17T08:02:43.713Z,97.08
2019-03-17T08:03:24.126Z,96.22
2019-03-17T08:04:04.441Z,93.7
2019-03-17T08:04:46.172Z,93.79
2019-03-17T08:05:25.426Z,95.89
2019-03-17T08:06:05.930Z,96.17
2019-03-17T08:06:46.255Z,97.03
2019-03-17T08:07:26.671Z,96.36
2019-03-17T08:08:09.571Z,96.55
2019-03-17T08:08:47.536Z,96.36
2019-03-17T08:09:29.529Z,94.56
2019-03-17T08:10:09.683Z,95.32
2019-03-17T08:10:50.222Z,95.12
2019-03-17T08:11:30.480Z,93.41
2019-03-17T08:12:10.861Z,94.27
2019-03-17T08:12:52.262Z,94.08
2019-03-17T08:13:33.701Z,94.56
2019-03-17T08:14:15.251Z,94.27
2019-03-17T08:14:57.984Z,92.08
2019-03-17T08:15:40.057Z,93.79
2019-03-17T08:16:25.125Z,94.08
2019-03-17T08:17:05.671Z,93.7
2019-03-17T08:17:49.817Z,92.18
2019-03-17T08:18:40.720Z,92.84
2019-03-17T08:19:21.036Z,93.51
2019-03-17T08:20:01.731Z,93.6
2019-03-17T08:20:43.433Z,94.27
2019-03-17T08:21:25.707Z,92.46
2019-03-17T08:22:06.406Z,93.7
2019-03-17T08:22:46.778Z,92.18
2019-03-17T08:23:29.268Z,92.36
2019-03-17T08:24:11.509Z,91.41
2019-03-17T08:24:53.554Z,93.7
2019-03-17T08:25:34.874Z,93.03
2019-03-17T08:26:15.269Z,94.46
2019-03-17T08:26:58.295Z,94.84
2019-03-17T08:27:38.824Z,95.32
2019-03-17T08:28:20.808Z,95.12
2019-03-17T08:29:01.172Z,95.98
2019-03-17T08:29:41.552Z,96.27
2019-03-17T08:30:21.917Z,95.51
2019-03-17T08:31:02.782Z,93.79
2019-03-17T08:31:46.105Z,93.98
2019-03-17T08:32:27.961Z,94.46
2019-03-17T08:33:08.515Z,93.13
2019-03-17T08:33:49.674Z,93.03
2019-03-17T08:34:31.699Z,92.08
2019-03-17T08:35:16.702Z,93.41
2019-03-17T08:35:57.059Z,94.37
2019-03-17T08:36:37.416Z,93.7
2019-03-17T08:37:17.947Z,92.65
2019-03-17T08:37:58.328Z,92.08
2019-03-17T08:38:41.682Z,91.51
2019-03-17T08:39:22.042Z,92.08
2019-03-17T08:40:04.271Z,92.18
2019-03-17T08:40:44.821Z,91.41
2019-03-17T08:41:26.767Z,92.74
2019-03-17T08:42:09.213Z,92.08
2019-03-17T08:42:50.681Z,93.03
2019-03-17T08:43:31.943Z,92.22
2019-03-17T08:44:14.520Z,92.22
2019-03-17T08:45:01.471Z,93.55
2019-03-17T08:45:42.675Z,90.7
2019-03-17T08:46:24.942Z,89.65
2019-03-17T08:47:15.612Z,91.08
2019-03-17T08:47:58.763Z,91.27
2019-03-17T08:48:40.711Z,91.17
2019-03-17T08:49:23.045Z,91.27
2019-03-17T08:50:04.118Z,89.65
2019-03-17T08:50:47.274Z,88.79
2019-03-17T08:51:27.716Z,89.84
2019-03-17T08:52:09.621Z,90.5
2019-03-17T08:52:51.580Z,90.89
2019-03-17T08:53:41.944Z,89.75
2019-03-17T08:54:22.499Z,89.55
2019-03-17T08:55:04.803Z,91.84
2019-03-17T08:55:45.983Z,91.36
2019-03-17T08:56:25.825Z,88.79
2019-03-17T08:57:06.844Z,87.65
2019-03-17T08:57:48.875Z,87.27
2019-03-17T08:58:29.388Z,87.46
2019-03-17T08:59:09.725Z,88.51
2019-03-17T08:59:51.919Z,88.12
2019-03-17T09:00:35.925Z,89.65
2019-03-17T09:01:16.400Z,90.31
2019-03-17T09:02:00.979Z,87.65
2019-03-17T09:02:44.474Z,89.65
2019-03-17T09:03:27.754Z,89.46
2019-03-17T09:04:08.076Z,89.94
2019-03-17T09:04:48.438Z,89.17
2019-03-17T09:05:34.588Z,88.12
2019-03-17T09:06:20.244Z,89.84
2019-03-17T09:07:01.703Z,89.26
2019-03-17T09:07:43.750Z,88.51
2019-03-17T09:08:34.616Z,88.41
2019-03-17T09:09:06.744Z,90.12
2019-03-17T09:09:48.167Z,90.12
2019-03-17T09:10:28.603Z,89.84
2019-03-17T09:11:09.734Z,89.36
2019-03-17T09:11:50.078Z,89.31
2019-03-17T09:12:30.441Z,88.93
2019-03-17T09:13:10.896Z,88.17
2019-03-17T09:13:52.078Z,89.5
2019-03-17T09:14:34.066Z,88.74
2019-03-17T09:15:16.394Z,87.69
2019-03-17T09:15:56.859Z,87.31
2019-03-17T09:16:37.261Z,87.88
2019-03-17T09:17:17.612Z,87.88
2019-03-17T09:17:58.069Z,86.55
2019-03-17T09:18:38.470Z,86.26
2019-03-17T09:19:20.576Z,87.02
2019-03-17T09:20:01.939Z,86.83
2019-03-17T09:20:42.739Z,86.45
2019-03-17T09:21:24.129Z,85.69
2019-03-17T09:22:04.578Z,87.21
2019-03-17T09:22:46.061Z,88.07
2019-03-17T09:23:26.355Z,88.45
2019-03-17T09:24:16.867Z,87.21
2019-03-17T09:24:48.237Z,87.79
2019-03-17T09:25:32.090Z,86.74
2019-03-17T09:26:14.336Z,87.4
2019-03-17T09:26:56.671Z,87.21
2019-03-17T09:27:37.078Z,86.55
2019-03-17T09:28:17.418Z,87.88
2019-03-17T09:28:57.848Z,88.31
2019-03-17T09:29:40.376Z,87.74
2019-03-17T09:30:21.727Z,87.26
2019-03-17T09:31:04.608Z,87.26
2019-03-17T09:31:42.566Z,84.4
2019-03-17T09:32:25.656Z,85.25
2019-03-17T09:33:09.277Z,86.59
2019-03-17T09:33:49.498Z,85.83
2019-03-17T09:34:31.108Z,84.4
2019-03-17T09:35:13.056Z,86.49
2019-03-17T09:36:04.508Z,85.35
2019-03-17T09:36:46.817Z,86.21
2019-03-17T09:37:28.786Z,83.92
2019-03-17T09:38:09.228Z,81.92
2019-03-17T09:38:58.147Z,82.97
2019-03-17T09:39:39.227Z,82.87
2019-03-17T09:40:19.602Z,83.25
2019-03-17T09:40:59.990Z,82.78
2019-03-17T09:41:45.248Z,83.44
2019-03-17T09:42:28.069Z,83.48
2019-03-17T09:43:10.204Z,82.72
2019-03-17T09:43:53.158Z,81.77
2019-03-17T09:44:33.583Z,80.81
2019-03-17T09:45:14.199Z,81.06
2019-03-17T09:45:56.347Z,82.59
2019-03-17T09:46:38.572Z,81.82
2019-03-17T09:47:22.312Z,80.68
2019-03-17T09:48:06.143Z,81.48
2019-03-17T09:48:46.448Z,81.44
2019-03-17T09:49:29.441Z,83.39
2019-03-17T09:50:09.895Z,81.77
2019-03-17T09:50:50.583Z,82.63
2019-03-17T09:51:33.709Z,82.53
2019-03-17T10:02:19.427Z,79.48
2019-03-17T10:03:03.640Z,78.43
2019-03-17T10:03:47.075Z,77.95
2019-03-17T10:05:54.995Z,77.19
2019-03-17T10:06:53.061Z,79.86
2019-03-17T10:10:49.408Z,78.75
2019-03-17T10:11:30.537Z,78.18
2019-03-17T10:12:11.806Z,77.42
2019-03-17T10:12:52.208Z,77.32
2019-03-17T10:13:32.559Z,77.32
2019-03-17T10:14:16.204Z,77.13
2019-03-17T10:15:15.591Z,76.84
2019-03-17T10:15:56.094Z,76.18
2019-03-17T10:16:37.013Z,75.13
2019-03-17T10:17:18.370Z,75.32
2019-03-17T10:17:59.617Z,75.98
2019-03-17T10:18:40.021Z,74.55
2019-03-17T10:19:24.177Z,75.32
2019-03-17T10:20:05.393Z,75.51
2019-03-17T10:20:46.660Z,74.84
2019-03-17T10:21:27.089Z,74.17
2019-03-17T10:22:07.685Z,75.47
2019-03-17T10:22:48.194Z,74.74
2019-03-17T10:23:30.604Z,73.32
2019-03-17T10:24:10.908Z,73.5
2019-03-17T10:24:54.645Z,73.12
2019-03-17T10:25:35.378Z,73.69
2019-03-17T10:26:15.702Z,73.03
2019-03-17T10:26:56.308Z,73.03
2019-03-17T10:27:49.058Z,72.45
2019-03-17T10:28:29.414Z,72.26
2019-03-17T10:29:20.395Z,73.75
2019-03-17T11:07:04.959Z,71.78
2019-03-17T11:07:45.372Z,71.82
2019-03-17T11:08:25.782Z,70.39
2019-03-17T11:09:07.627Z,69.62
2019-03-17T11:09:48.148Z,69.62
2019-03-17T11:10:30.229Z,69.53
2019-03-17T11:11:12.080Z,70.1
2019-03-17T11:11:51.057Z,70.67
2019-03-17T11:12:31.391Z,70.61
2019-03-17T11:13:14.404Z,68.61
2019-03-17T11:13:55.877Z,68.32
2019-03-17T11:14:36.216Z,68.51
2019-03-17T11:15:16.950Z,69.72
2019-03-17T11:15:57.462Z,68.67
2019-03-17T11:16:37.789Z,69.27
2019-03-17T11:17:18.192Z,69.09
2019-03-17T11:17:58.566Z,68.32
2019-03-17T11:18:39.957Z,68.19
2019-03-17T11:19:20.375Z,68.7
2019-03-17T11:20:00.750Z,69.24
2019-03-17T11:20:41.148Z,69.34
2019-03-17T11:21:21.715Z,68.1
2019-03-17T11:22:04.983Z,68.96
2019-03-17T11:22:45.126Z,69.18
2019-03-17T11:23:25.493Z,67.59
2019-03-17T11:24:05.967Z,66.06
2019-03-17T11:24:50.205Z,65.11
2019-03-17T11:25:30.589Z,63.57
2019-03-17T11:26:12.113Z,63.7
2019-03-17T11:26:52.482Z,62.65
2019-03-17T11:27:33.864Z,62.01
2019-03-17T11:28:18.112Z,60.67
2019-03-17T11:28:59.449Z,60.13
2019-03-17T11:29:41.742Z,58.12
2019-03-17T11:30:22.065Z,57.64
2019-03-17T11:31:02.483Z,58.12
2019-03-17T11:31:43.969Z,56.99
2019-03-17T11:32:25.112Z,55.27
2019-03-17T11:33:08.424Z,54.32
2019-03-17T11:33:50.803Z,54.89
2019-03-17T11:34:31.451Z,54.63
2019-03-17T11:35:11.862Z,53.36
2019-03-17T11:35:54.069Z,53.45
2019-03-17T11:36:34.644Z,53.07
2019-03-17T11:37:16.877Z,52.97
2019-03-17T11:37:58.823Z,52.01
2019-03-17T11:38:41.169Z,50.38
2019-03-17T11:39:21.699Z,50.48
2019-03-17T11:40:02.072Z,50
2019-03-17T11:40:42.392Z,50.58
2019-03-17T11:41:23.423Z,50.65
2019-03-17T11:42:03.861Z,51.7
2019-03-17T11:42:44.696Z,53.33
2019-03-17T11:43:25.144Z,53.33
2019-03-17T11:44:09.297Z,53.2
2019-03-17T11:44:50.656Z,53.2
2019-03-17T11:45:31.093Z,53.69
2019-03-17T11:46:11.490Z,53.97
2019-03-17T11:46:51.812Z,54.36
2019-03-17T11:47:33.861Z,53.78
2019-03-17T11:48:16.130Z,54.07
2019-03-17T11:48:58.366Z,53.85
2019-03-17T11:49:45.967Z,53.75
2019-03-17T11:50:23.790Z,53.56
2019-03-17T11:51:04.285Z,53.66
2019-03-17T11:51:46.605Z,53.56
2019-03-17T11:52:27.049Z,53.66
2019-03-17T11:53:09.172Z,53.28
2019-03-17T11:53:50.675Z,51.75
2019-03-17T11:54:32.862Z,52.32
2019-03-17T11:55:15.057Z,52.13
2019-03-17T11:55:55.525Z,52.15
2019-03-17T11:56:36.848Z,52.15
2019-03-17T11:57:17.260Z,51.39
2019-03-17T11:57:57.790Z,51.61
2019-03-17T11:58:38.892Z,49.69
2019-03-17T11:59:19.144Z,49.6
2019-03-17T12:00:01.238Z,50.29
2019-03-17T12:00:44.192Z,50.58
2019-03-17T12:01:24.508Z,50.1
2019-03-17T12:02:06.824Z,50.29
2019-03-17T12:02:47.310Z,49.62
2019-03-17T12:03:28.959Z,49.65
2019-03-17T12:04:09.563Z,49.05
2019-03-17T12:04:51.850Z,49.14
2019-03-17T12:05:33.855Z,49.62
2019-03-17T12:06:17.864Z,49.43
2019-03-17T12:06:58.296Z,48.95
2019-03-17T12:07:40.647Z,49.14
2019-03-17T12:08:23.908Z,48.18
2019-03-17T12:09:04.484Z,49.05
2019-03-17T12:09:50.183Z,49.52
2019-03-17T12:10:27.225Z,48.47
2019-03-17T12:11:09.871Z,48.47
2019-03-17T12:11:50.284Z,48.95
2019-03-17T12:12:30.732Z,49.91
2019-03-17T12:13:14.713Z,49.74
2019-03-17T12:13:55.697Z,48.97
2019-03-17T12:14:35.925Z,48.69
2019-03-17T12:15:16.611Z,48.21
2019-03-17T12:15:58.124Z,47.25
2019-03-17T12:16:41.028Z,47.15
2019-03-17T12:17:21.541Z,47.92
2019-03-17T12:18:02.721Z,46.67
2019-03-17T12:18:44.302Z,46.96
2019-03-17T12:19:24.515Z,46.48
2019-03-17T12:20:04.898Z,46.58
2019-03-17T12:20:49.258Z,45.81
2019-03-17T12:21:32.133Z,46.86
2019-03-17T12:22:12.791Z,46.86
2019-03-17T12:22:53.131Z,47.89
2019-03-17T12:23:35.431Z,46.86
2019-03-17T12:24:20.161Z,45.9
2019-03-17T12:25:01.015Z,46.86
2019-03-17T12:25:44.383Z,46.58
2019-03-17T12:26:25.102Z,47.44
2019-03-17T12:27:07.696Z,46.19
2019-03-17T12:27:49.863Z,46.86
2019-03-17T12:28:36.928Z,46.46
2019-03-17T12:29:17.567Z,46.94
2019-03-17T12:29:59.007Z,46.08
2019-03-17T12:30:39.289Z,45.98
2019-03-17T12:31:24.439Z,46.46
2019-03-17T12:32:04.759Z,47.39
2019-03-17T12:32:46.382Z,48.54
2019-03-17T12:33:26.690Z,49.6